Time;durP1;ratioP1;P1;durP2;ratioP2;P2;SDS_P1;SDS_P2;PMS_P1;PMS_P2;Temp;Humidity;BMP_temperature;BMP_pressure;BME280_temperature;BME280_humidity;BME280_pressure;Samples;Min_cycle;Max_cycle;Signal;HPM_P1;HPM_P2
2023/09/10 00:01:44;;;;;;;40.50;36.38;;;18.70;99.90;;;;;;5091718;28;20040;-82
2023/09/10 00:04:10;;;;;;;39.00;35.10;;;18.80;99.90;;;;;;5093860;27;20164;-81
2023/09/10 00:06:36;;;;;;;38.10;34.10;;;18.80;99.90;;;;;;5100429;27;20082;-83
2023/09/10 00:09:03;;;;;;;43.97;39.50;;;18.90;99.90;;;;;;5097883;27;20032;-83
2023/09/10 00:11:29;;;;;;;44.20;39.60;;;19.00;99.90;;;;;;5095486;28;20474;-82
2023/09/10 00:13:55;;;;;;;47.15;42.35;;;18.90;99.90;;;;;;5133907;27;20042;-84
2023/09/10 00:16:20;;;;;;;54.40;48.67;;;18.90;99.90;;;;;;5097250;27;20079;-81
2023/09/10 00:18:46;;;;;;;55.63;49.75;;;19.00;99.90;;;;;;5110140;27;20396;-80
2023/09/10 00:21:13;;;;;;;50.78;45.28;;;19.10;99.90;;;;;;5123541;27;20400;-79
2023/09/10 00:23:38;;;;;;;59.63;53.03;;;19.10;99.90;;;;;;5093809;28;20043;-83
2023/09/10 00:26:04;;;;;;;50.35;45.08;;;19.20;99.90;;;;;;5100835;28;20039;-83
2023/09/10 00:28:30;;;;;;;50.53;45.03;;;19.20;99.90;;;;;;5094002;28;20466;-80
2023/09/10 00:30:56;;;;;;;55.45;47.75;;;19.30;99.90;;;;;;5094556;28;20039;-80
2023/09/10 00:33:22;;;;;;;59.28;51.78;;;19.30;99.90;;;;;;5093109;27;20035;-80
2023/09/10 00:35:47;;;;;;;60.83;51.80;;;19.40;99.90;;;;;;5117597;27;20445;-83
2023/09/10 00:38:13;;;;;;;49.53;42.72;;;19.40;99.90;;;;;;5093248;28;20046;-79
2023/09/10 00:40:39;;;;;;;45.80;40.47;;;19.40;99.90;;;;;;5111111;27;20040;-79
2023/09/10 00:43:04;;;;;;;48.45;42.03;;;19.40;99.90;;;;;;5102929;28;20043;-81
2023/09/10 00:45:30;;;;;;;52.58;44.92;;;19.40;99.90;;;;;;5095348;27;20070;-83
2023/09/10 00:47:57;;;;;;;51.20;44.33;;;19.40;99.90;;;;;;5115421;27;20092;-83
2023/09/10 00:50:23;;;;;;;45.22;40.33;;;19.40;99.90;;;;;;5077005;27;20035;-79
2023/09/10 00:52:52;;;;;;;47.38;41.78;;;19.50;99.90;;;;;;5115289;27;20070;-80
2023/09/10 00:55:21;;;;;;;48.03;42.20;;;19.40;99.90;;;;;;5113702;27;20045;-81
2023/09/10 00:57:46;;;;;;;42.08;37.40;;;19.50;99.90;;;;;;5115172;27;20042;-81
2023/09/10 01:00:13;;;;;;;45.53;40.63;;;19.50;99.90;;;;;;5132008;27;20122;-79
2023/09/10 01:02:43;;;;;;;39.78;35.45;;;19.50;99.90;;;;;;5125084;27;20444;-79
2023/09/10 01:05:11;;;;;;;40.95;36.65;;;19.50;99.90;;;;;;5089969;27;20035;-80
2023/09/10 01:07:37;;;;;;;37.80;33.78;;;19.30;99.90;;;;;;5118166;27;20089;-79
2023/09/10 01:10:04;;;;;;;35.75;32.05;;;19.20;99.90;;;;;;5108393;28;20059;-81
2023/09/10 01:12:55;;;;;;;34.63;31.15;;;19.10;99.90;;;;;;5097864;27;20134;-83
2023/09/10 01:15:39;;;;;;;33.47;30.17;;;19.10;99.90;;;;;;5112883;27;20538;-81
2023/09/10 01:18:04;;;;;;;30.50;27.35;;;19.10;99.90;;;;;;5111103;28;20118;-80
2023/09/10 01:20:30;;;;;;;33.03;29.65;;;19.00;99.90;;;;;;5091929;27;20249;-79
2023/09/10 01:23:17;;;;;;;32.28;29.02;;;19.10;99.90;;;;;;5112731;27;20370;-79
2023/09/10 01:25:43;;;;;;;39.67;35.15;;;19.10;99.90;;;;;;5110349;28;20044;-81
2023/09/10 01:28:09;;;;;;;34.08;30.48;;;19.10;99.90;;;;;;5093841;28;20071;-79
2023/09/10 01:30:34;;;;;;;32.97;29.60;;;19.20;99.90;;;;;;5093162;28;20079;-79
2023/09/10 01:33:15;;;;;;;29.85;26.90;;;19.10;99.90;;;;;;5111858;27;20620;-82
2023/09/10 01:35:45;;;;;;;29.92;26.85;;;19.10;99.90;;;;;;5098676;27;20035;-83
2023/09/10 01:38:28;;;;;;;27.98;25.17;;;19.10;99.90;;;;;;5131230;27;20039;-82
2023/09/10 01:41:09;;;;;;;32.55;28.92;;;19.10;99.90;;;;;;5096493;28;20105;-80
2023/09/10 01:43:35;;;;;;;37.05;31.73;;;19.10;99.90;;;;;;5106980;27;20095;-80
2023/09/10 01:46:03;;;;;;;31.42;28.23;;;19.20;99.90;;;;;;5116690;27;20122;-82
2023/09/10 01:48:29;;;;;;;32.22;28.83;;;19.20;99.90;;;;;;5108791;28;20043;-83
2023/09/10 01:50:55;;;;;;;33.40;29.80;;;19.20;99.90;;;;;;5113669;27;20045;-80
2023/09/10 01:53:21;;;;;;;34.17;30.58;;;19.20;99.90;;;;;;5093135;28;20617;-83
2023/09/10 01:55:46;;;;;;;34.75;31.02;;;19.20;99.90;;;;;;5093296;28;20050;-79
2023/09/10 01:58:13;;;;;;;32.80;29.42;;;19.20;99.90;;;;;;5112363;27;20448;-81
2023/09/10 02:00:39;;;;;;;32.45;29.15;;;19.10;99.90;;;;;;5109478;27;20104;-78
2023/09/10 02:03:05;;;;;;;30.70;27.60;;;19.00;99.90;;;;;;5094900;27;20452;-78
2023/09/10 02:05:31;;;;;;;31.52;28.33;;;18.90;99.90;;;;;;5087165;28;20118;-79
2023/09/10 02:07:56;;;;;;;29.45;26.65;;;18.80;99.90;;;;;;5095705;27;20043;-80
2023/09/10 02:10:23;;;;;;;29.40;26.55;;;18.80;99.90;;;;;;5073112;28;20036;-80
2023/09/10 02:12:49;;;;;;;30.13;27.13;;;18.70;99.90;;;;;;5096080;27;20073;-80
2023/09/10 02:15:16;;;;;;;31.27;28.08;;;18.70;99.90;;;;;;5103281;28;20039;-82
2023/09/10 02:17:42;;;;;;;29.15;26.30;;;18.60;99.90;;;;;;5122997;27;20043;-78
2023/09/10 02:20:09;;;;;;;29.17;26.27;;;18.50;99.90;;;;;;5107041;28;20040;-79
2023/09/10 02:22:37;;;;;;;31.27;28.17;;;18.50;99.90;;;;;;5103608;27;20032;-78
2023/09/10 02:25:03;;;;;;;34.25;30.65;;;18.50;99.90;;;;;;5095359;27;20062;-80
2023/09/10 02:27:31;;;;;;;31.08;28.08;;;18.50;99.90;;;;;;5127773;27;20043;-78
2023/09/10 02:29:56;;;;;;;29.83;26.88;;;18.50;99.90;;;;;;5108838;28;20071;-77
2023/09/10 02:32:23;;;;;;;32.50;29.10;;;18.60;99.90;;;;;;5109904;27;20089;-79
2023/09/10 02:34:54;;;;;;;31.13;28.08;;;18.60;99.90;;;;;;5102211;27;20043;-83
2023/09/10 02:37:21;;;;;;;34.38;30.65;;;18.60;99.90;;;;;;5121235;27;20471;-82
2023/09/10 02:39:47;;;;;;;31.63;28.27;;;18.70;99.90;;;;;;5075557;28;20039;-82
2023/09/10 02:42:13;;;;;;;33.47;30.15;;;18.70;99.90;;;;;;5097022;27;20474;-83
2023/09/10 02:44:38;;;;;;;34.17;30.48;;;18.70;99.90;;;;;;5116958;27;20059;-82
2023/09/10 02:47:04;;;;;;;33.72;30.23;;;18.60;99.90;;;;;;5091202;28;20052;-82
2023/09/10 02:49:30;;;;;;;32.70;29.30;;;18.60;99.90;;;;;;5096916;28;20040;-81
2023/09/10 02:51:55;;;;;;;32.28;29.02;;;18.60;99.90;;;;;;5109651;28;20071;-81
2023/09/10 02:54:21;;;;;;;33.10;29.83;;;18.50;99.90;;;;;;5135406;27;20047;-80
2023/09/10 02:56:50;;;;;;;29.30;26.30;;;18.50;99.90;;;;;;5102957;28;20077;-82
2023/09/10 02:59:25;;;;;;;28.50;25.55;;;18.30;99.90;;;;;;5104834;28;20048;-81
2023/09/10 03:01:52;;;;;;;28.83;25.92;;;18.30;99.90;;;;;;5104857;28;20392;-83
2023/09/10 03:04:18;;;;;;;23.45;21.23;;;18.30;99.90;;;;;;5102127;28;20043;-83
2023/09/10 03:06:49;;;;;;;19.38;17.77;;;18.20;99.90;;;;;;5108485;28;20039;-81
2023/09/10 03:09:16;;;;;;;22.15;20.15;;;18.10;99.90;;;;;;5100168;28;20071;-81
2023/09/10 03:11:43;;;;;;;22.08;20.08;;;18.00;99.90;;;;;;5083198;28;20065;-83
2023/09/10 03:14:10;;;;;;;22.50;20.38;;;18.00;99.90;;;;;;5119054;27;20038;-83
2023/09/10 03:16:40;;;;;;;24.10;21.98;;;18.00;99.90;;;;;;5095160;28;20047;-84
2023/09/10 03:19:06;;;;;;;25.55;23.10;;;18.00;99.90;;;;;;5098259;28;20390;-80
2023/09/10 03:21:32;;;;;;;25.70;23.40;;;18.00;99.90;;;;;;5110158;28;20035;-84
2023/09/10 03:23:57;;;;;;;25.25;23.00;;;17.90;99.90;;;;;;5124877;27;20055;-82
2023/09/10 03:26:23;;;;;;;27.05;24.35;;;17.90;99.90;;;;;;5116456;28;20043;-80
2023/09/10 03:28:49;;;;;;;24.42;22.15;;;18.00;99.90;;;;;;5089137;28;20035;-79
2023/09/10 03:31:15;;;;;;;24.92;22.60;;;18.00;99.90;;;;;;5092386;28;20092;-79
2023/09/10 03:33:44;;;;;;;25.50;22.98;;;18.10;99.90;;;;;;5105581;28;20043;-80
2023/09/10 03:36:09;;;;;;;25.58;23.00;;;18.00;99.90;;;;;;5085500;28;20071;-81
2023/09/10 03:38:35;;;;;;;23.58;21.27;;;18.10;99.90;;;;;;5092809;28;20066;-81
2023/09/10 03:41:01;;;;;;;24.60;22.20;;;18.10;99.90;;;;;;5112672;28;20051;-80
2023/09/10 03:43:27;;;;;;;26.55;24.08;;;18.10;99.90;;;;;;5063045;28;20048;-79
2023/09/10 03:45:53;;;;;;;27.15;24.45;;;18.10;99.90;;;;;;5126321;27;22034;-80
2023/09/10 03:48:19;;;;;;;28.15;24.13;;;18.10;99.90;;;;;;5095821;28;20045;-79
2023/09/10 03:50:44;;;;;;;27.02;24.27;;;18.10;99.90;;;;;;5093901;28;20074;-80
2023/09/10 03:53:10;;;;;;;28.48;25.52;;;18.00;99.90;;;;;;5106983;28;20566;-79
2023/09/10 03:55:36;;;;;;;26.95;24.33;;;18.00;99.90;;;;;;5095150;28;20039;-79
2023/09/10 03:58:01;;;;;;;31.60;28.33;;;18.00;99.90;;;;;;5111073;27;20043;-79
2023/09/10 04:00:27;;;;;;;33.38;29.77;;;18.00;99.90;;;;;;5132934;27;20047;-79
2023/09/10 04:02:54;;;;;;;27.88;25.17;;;18.00;99.90;;;;;;5093723;28;20134;-79
2023/09/10 04:05:19;;;;;;;29.23;26.30;;;18.00;99.90;;;;;;5097957;27;20505;-78
2023/09/10 04:07:45;;;;;;;27.02;24.42;;;18.00;99.90;;;;;;5110115;27;20031;-81
2023/09/10 04:10:11;;;;;;;28.45;25.27;;;17.90;99.90;;;;;;5127041;27;20049;-81
2023/09/10 04:12:37;;;;;;;29.67;26.63;;;17.80;99.90;;;;;;5116530;27;20045;-81
2023/09/10 04:15:04;;;;;;;27.50;24.80;;;17.80;99.90;;;;;;5130346;27;20042;-81
2023/09/10 04:17:30;;;;;;;29.90;26.80;;;17.80;99.90;;;;;;5132908;27;20043;-82
2023/09/10 04:19:59;;;;;;;29.08;26.08;;;17.80;99.90;;;;;;5109996;28;20380;-78
2023/09/10 04:22:25;;;;;;;24.30;22.00;;;17.80;99.90;;;;;;5112914;27;20033;-80
2023/09/10 04:24:50;;;;;;;26.17;23.58;;;17.70;99.90;;;;;;5102672;27;20039;-80
2023/09/10 04:27:16;;;;;;;19.55;17.52;;;17.60;99.90;;;;;;5111801;27;20100;-83
2023/09/10 04:29:43;;;;;;;22.10;20.25;;;17.60;99.90;;;;;;5103747;28;20074;-81
2023/09/10 04:32:08;;;;;;;25.30;23.15;;;17.50;99.90;;;;;;5094458;28;20142;-79
2023/09/10 04:34:34;;;;;;;22.77;20.77;;;17.50;99.90;;;;;;5121650;27;20138;-79
2023/09/10 04:37:02;;;;;;;20.98;19.13;;;17.50;99.90;;;;;;5095395;28;20043;-78
2023/09/10 04:39:27;;;;;;;19.88;18.27;;;17.60;99.90;;;;;;5077961;28;20145;-79
2023/09/10 04:41:53;;;;;;;22.67;20.67;;;17.60;99.90;;;;;;5097533;27;20152;-80
2023/09/10 04:44:20;;;;;;;20.63;18.83;;;17.60;99.90;;;;;;5110515;28;20056;-81
2023/09/10 04:46:46;;;;;;;22.58;20.48;;;17.70;99.90;;;;;;5100479;28;20035;-81
2023/09/10 04:49:12;;;;;;;21.83;19.83;;;17.60;99.90;;;;;;5114628;27;20035;-80
2023/09/10 04:51:37;;;;;;;27.23;24.73;;;17.70;99.90;;;;;;5078325;28;20035;-81
2023/09/10 04:54:03;;;;;;;27.58;25.00;;;17.60;99.90;;;;;;5063674;28;20460;-80
2023/09/10 04:56:29;;;;;;;24.25;22.15;;;17.60;99.90;;;;;;5094035;27;20036;-81
2023/09/10 04:58:55;;;;;;;31.17;28.20;;;17.50;99.90;;;;;;5093165;28;20041;-80
2023/09/10 05:01:20;;;;;;;29.63;26.80;;;17.60;99.90;;;;;;5083907;28;20074;-79
2023/09/10 05:03:46;;;;;;;31.50;28.52;;;17.60;99.90;;;;;;5093947;27;20114;-82
2023/09/10 05:06:13;;;;;;;29.83;27.02;;;17.60;99.90;;;;;;5092785;28;20063;-84
2023/09/10 05:08:39;;;;;;;24.58;22.17;;;17.60;99.90;;;;;;5095801;27;20123;-84
2023/09/10 05:11:05;;;;;;;25.63;23.17;;;17.50;99.90;;;;;;5108594;27;20035;-84
2023/09/10 05:13:31;;;;;;;27.20;24.67;;;17.50;99.90;;;;;;5097696;27;20604;-81
2023/09/10 05:15:57;;;;;;;31.83;28.63;;;17.50;99.90;;;;;;5131401;27;20065;-80
2023/09/10 05:18:26;;;;;;;26.75;24.27;;;17.50;99.90;;;;;;5112111;27;20088;-83
2023/09/10 05:20:52;;;;;;;27.60;25.05;;;17.50;99.90;;;;;;5102202;28;20392;-81
2023/09/10 05:23:22;;;;;;;26.90;24.38;;;17.60;99.90;;;;;;5093122;28;20044;-81
2023/09/10 05:25:48;;;;;;;27.38;24.67;;;17.60;99.90;;;;;;5104841;27;20059;-80
2023/09/10 05:28:15;;;;;;;30.15;27.30;;;17.60;99.90;;;;;;5109879;28;20035;-83
2023/09/10 05:30:41;;;;;;;29.80;26.90;;;17.70;99.90;;;;;;5109721;27;21914;-80
2023/09/10 05:33:06;;;;;;;29.10;26.40;;;17.70;99.90;;;;;;5094586;27;20035;-81
2023/09/10 05:35:32;;;;;;;30.33;27.42;;;17.80;99.90;;;;;;5089317;28;20036;-80
2023/09/10 05:37:58;;;;;;;31.13;28.13;;;17.80;99.90;;;;;;5109846;28;20047;-83
2023/09/10 05:40:25;;;;;;;26.60;24.30;;;17.80;99.90;;;;;;5109841;28;20126;-80
2023/09/10 05:42:51;;;;;;;26.48;24.17;;;17.90;99.90;;;;;;5112127;27;20075;-79
2023/09/10 05:45:18;;;;;;;19.65;18.05;;;17.80;99.90;;;;;;5112822;27;20062;-80
2023/09/10 05:47:43;;;;;;;21.58;19.80;;;17.70;99.90;;;;;;5150725;27;20038;-78
2023/09/10 05:50:10;;;;;;;19.98;18.42;;;17.60;99.90;;;;;;5114013;27;20558;-79
2023/09/10 05:52:35;;;;;;;22.80;21.00;;;17.60;99.90;;;;;;5110079;27;20043;-81
2023/09/10 05:55:02;;;;;;;22.75;20.85;;;17.60;99.90;;;;;;5096185;27;20047;-80
2023/09/10 05:57:27;;;;;;;22.88;20.90;;;17.70;99.90;;;;;;5095596;27;20116;-79
2023/09/10 05:59:53;;;;;;;26.13;23.92;;;17.80;99.90;;;;;;5115907;27;20480;-80
2023/09/10 06:02:18;;;;;;;25.23;23.10;;;17.80;99.90;;;;;;5115005;27;20088;-80
2023/09/10 06:04:44;;;;;;;24.88;22.73;;;17.90;99.90;;;;;;5111303;27;20035;-79
2023/09/10 06:07:10;;;;;;;31.55;28.65;;;17.90;99.90;;;;;;5105188;27;20471;-78
2023/09/10 06:09:36;;;;;;;30.05;27.55;;;17.90;99.90;;;;;;5116141;27;20035;-80
2023/09/10 06:12:05;;;;;;;28.95;26.50;;;17.90;99.90;;;;;;5111993;27;20150;-81
2023/09/10 06:14:33;;;;;;;29.23;26.70;;;18.00;99.90;;;;;;5081648;27;20526;-79
2023/09/10 06:17:00;;;;;;;30.30;27.70;;;18.10;99.90;;;;;;5109251;27;20043;-81
2023/09/10 06:19:25;;;;;;;32.65;29.70;;;18.30;99.90;;;;;;5095917;27;20039;-80
2023/09/10 06:21:51;;;;;;;32.08;29.17;;;18.30;99.90;;;;;;5112303;27;20035;-80
2023/09/10 06:24:17;;;;;;;35.10;31.85;;;18.50;99.90;;;;;;5115497;27;20130;-80
2023/09/10 06:26:43;;;;;;;36.55;33.08;;;18.50;99.90;;;;;;5113360;27;20123;-78
2023/09/10 06:29:09;;;;;;;36.13;32.67;;;18.60;99.90;;;;;;5099171;27;20043;-79
2023/09/10 06:31:34;;;;;;;37.15;33.22;;;18.90;99.90;;;;;;5094905;27;20036;-81
2023/09/10 06:34:00;;;;;;;37.67;34.03;;;19.00;99.90;;;;;;5077075;27;20046;-80
2023/09/10 06:36:26;;;;;;;47.67;42.65;;;19.20;99.90;;;;;;5071096;27;20031;-79
2023/09/10 06:38:52;;;;;;;46.58;41.78;;;19.20;99.90;;;;;;5109235;27;20053;-80
2023/09/10 06:41:18;;;;;;;49.05;43.75;;;19.40;99.90;;;;;;5132311;27;20043;-80
2023/09/10 06:43:44;;;;;;;48.17;42.95;;;19.50;99.90;;;;;;5094031;27;20051;-78
2023/09/10 06:46:10;;;;;;;47.00;41.92;;;19.70;99.90;;;;;;5124581;27;20035;-79
2023/09/10 06:48:36;;;;;;;47.97;42.10;;;19.70;99.90;;;;;;5122606;27;20505;-79
2023/09/10 06:51:02;;;;;;;49.90;41.65;;;19.80;99.90;;;;;;5125434;27;20046;-79
2023/09/10 06:53:29;;;;;;;42.03;37.53;;;20.10;99.90;;;;;;5094092;28;20050;-79
2023/09/10 06:55:56;;;;;;;42.97;37.35;;;20.10;99.90;;;;;;5094133;28;20046;-79
2023/09/10 06:58:21;;;;;;;40.67;36.47;;;20.30;99.90;;;;;;5100964;27;20042;-80
2023/09/10 07:00:47;;;;;;;42.78;38.08;;;20.20;99.90;;;;;;5105413;27;20418;-80
2023/09/10 07:03:13;;;;;;;42.33;37.78;;;20.40;99.90;;;;;;5077965;28;20100;-80
2023/09/10 07:05:43;;;;;;;44.40;39.65;;;20.60;99.90;;;;;;5094848;28;20054;-80
2023/09/10 07:08:12;;;;;;;46.55;41.35;;;20.70;99.90;;;;;;5111297;28;20162;-79
2023/09/10 07:10:38;;;;;;;39.75;35.40;;;20.70;99.90;;;;;;5150893;27;20607;-79
2023/09/10 07:13:06;;;;;;;47.95;40.53;;;20.80;99.90;;;;;;5113774;27;20130;-78
2023/09/10 07:15:32;;;;;;;46.90;41.10;;;21.00;99.90;;;;;;5098397;27;20046;-80
2023/09/10 07:17:58;;;;;;;43.58;38.30;;;21.00;99.90;;;;;;5097813;27;20039;-80
2023/09/10 07:20:24;;;;;;;41.22;36.88;;;21.10;99.90;;;;;;5110830;27;20461;-79
2023/09/10 07:22:49;;;;;;;42.08;37.55;;;21.20;99.90;;;;;;5093703;27;20031;-78
2023/09/10 07:25:15;;;;;;;43.95;38.20;;;21.40;99.90;;;;;;5095994;27;20238;-78
2023/09/10 07:27:41;;;;;;;46.97;38.03;;;21.50;99.90;;;;;;5113761;27;20038;-78
2023/09/10 07:30:07;;;;;;;39.20;35.00;;;21.70;99.90;;;;;;5121973;27;20087;-78
2023/09/10 07:32:34;;;;;;;42.47;37.88;;;21.80;99.90;;;;;;5124692;27;20235;-78
2023/09/10 07:35:00;;;;;;;44.17;39.08;;;21.90;99.90;;;;;;5098450;27;20115;-79
2023/09/10 07:37:25;;;;;;;47.17;41.83;;;22.00;99.90;;;;;;5104797;27;20070;-70
2023/09/10 07:39:59;;;;;;;46.42;41.08;;;22.10;99.90;;;;;;5156692;27;20091;-79
2023/09/10 07:42:25;;;;;;;42.80;38.17;;;22.20;99.90;;;;;;5118352;27;20489;-79
2023/09/10 07:44:53;;;;;;;48.47;42.10;;;22.30;99.90;;;;;;5079274;27;20043;-80
2023/09/10 07:47:20;;;;;;;41.33;36.88;;;22.40;99.90;;;;;;5092845;28;20391;-80
2023/09/10 07:49:49;;;;;;;41.53;36.47;;;22.60;99.90;;;;;;5111510;28;20131;-79
2023/09/10 07:52:15;;;;;;;45.45;39.60;;;22.60;99.90;;;;;;5097520;27;20058;-80
2023/09/10 07:54:43;;;;;;;41.45;37.05;;;22.70;99.90;;;;;;5098577;27;20039;-78
2023/09/10 07:57:08;;;;;;;40.10;35.88;;;22.80;99.90;;;;;;5128974;27;20130;-80
2023/09/10 07:59:34;;;;;;;40.28;35.92;;;22.80;99.90;;;;;;5126056;27;21619;-78
2023/09/10 08:02:01;;;;;;;42.22;37.75;;;23.00;99.90;;;;;;5098245;27;20047;-79
2023/09/10 08:04:27;;;;;;;36.95;33.03;;;23.10;99.90;;;;;;5133200;27;20054;-79
2023/09/10 08:06:53;;;;;;;39.00;34.80;;;23.20;99.90;;;;;;5098346;27;20092;-80
2023/09/10 08:09:19;;;;;;;38.00;33.85;;;23.30;99.90;;;;;;5090221;27;20035;-77
2023/09/10 08:11:45;;;;;;;36.78;32.78;;;23.40;99.90;;;;;;5125454;27;20035;-78
2023/09/10 08:14:10;;;;;;;31.83;28.60;;;23.50;99.90;;;;;;5088521;28;20048;-79
2023/09/10 08:16:37;;;;;;;33.45;29.98;;;23.60;99.90;;;;;;5114349;27;20103;-79
2023/09/10 08:19:03;;;;;;;31.00;27.63;;;23.70;99.90;;;;;;5111421;27;20039;-79
2023/09/10 08:21:28;;;;;;;34.40;27.50;;;23.80;99.90;;;;;;5093445;28;20119;-80
2023/09/10 08:23:54;;;;;;;31.20;28.02;;;23.90;99.90;;;;;;5083663;28;20046;-79
2023/09/10 08:26:20;;;;;;;31.13;26.75;;;24.00;99.90;;;;;;5060586;28;20063;-80
2023/09/10 08:28:51;;;;;;;28.70;25.80;;;24.10;99.90;;;;;;5089383;27;20119;-80
2023/09/10 08:31:17;;;;;;;31.50;28.10;;;24.20;99.90;;;;;;5093842;28;20039;-80
2023/09/10 08:33:43;;;;;;;29.27;26.30;;;24.20;99.90;;;;;;5083544;27;20061;-80
2023/09/10 08:36:08;;;;;;;28.08;25.17;;;24.30;99.90;;;;;;5151811;27;20118;-79
2023/09/10 08:38:34;;;;;;;28.15;23.70;;;24.30;99.90;;;;;;5126000;27;20035;-80
2023/09/10 08:41:00;;;;;;;25.67;23.08;;;24.50;99.90;;;;;;5104392;28;20075;-78
2023/09/10 08:43:41;;;;;;;25.63;23.02;;;24.60;99.90;;;;;;5127685;27;20692;-80
2023/09/10 08:46:09;;;;;;;25.95;23.33;;;24.60;99.90;;;;;;5109858;27;20482;-80
2023/09/10 08:48:41;;;;;;;25.50;22.92;;;24.80;99.90;;;;;;5113606;27;20070;-80
2023/09/10 08:51:08;;;;;;;27.60;21.10;;;24.80;99.90;;;;;;5111028;27;20089;-79
2023/09/10 08:53:36;;;;;;;21.55;19.25;;;24.90;99.90;;;;;;5093923;28;20097;-72
2023/09/10 08:56:04;;;;;;;23.20;20.45;;;25.10;99.90;;;;;;5108502;28;20075;-79
2023/09/10 08:58:34;;;;;;;21.88;19.05;;;25.10;99.90;;;;;;5092498;28;20046;-79
2023/09/10 09:01:00;;;;;;;23.85;19.60;;;25.20;99.90;;;;;;5092695;28;20051;-80
2023/09/10 09:03:28;;;;;;;23.48;20.58;;;25.30;99.90;;;;;;5093289;28;20122;-80
2023/09/10 09:06:05;;;;;;;20.42;18.20;;;25.40;99.90;;;;;;5102226;27;20142;-79
2023/09/10 09:08:33;;;;;;;20.52;18.52;;;25.60;99.90;;;;;;5109491;27;20144;-80
2023/09/10 09:11:03;;;;;;;23.25;18.45;;;25.80;99.90;;;;;;5096309;27;20050;-80
2023/09/10 09:13:37;;;;;;;21.90;19.05;;;25.80;99.90;;;;;;5114780;27;20047;-80
2023/09/10 09:16:04;;;;;;;18.00;16.15;;;25.80;99.90;;;;;;5113352;27;20134;-79
2023/09/10 09:18:30;;;;;;;19.08;17.17;;;25.90;99.90;;;;;;5101604;28;20035;-80
2023/09/10 09:21:02;;;;;;;17.98;16.15;;;25.90;99.90;;;;;;5092954;28;20046;-79
2023/09/10 09:23:29;;;;;;;17.48;15.40;;;26.10;99.90;;;;;;5123950;27;20043;-79
2023/09/10 09:25:56;;;;;;;18.27;16.42;;;26.30;99.90;;;;;;5130164;27;20035;-79
2023/09/10 09:28:23;;;;;;;16.70;15.00;;;26.40;99.90;;;;;;5109118;27;20036;-80
2023/09/10 09:30:51;;;;;;;18.05;16.13;;;26.50;99.90;;;;;;5127337;27;20043;-80
2023/09/10 09:33:16;;;;;;;16.30;13.98;;;26.60;99.90;;;;;;5112816;27;20059;-80
2023/09/10 09:35:44;;;;;;;17.50;15.68;;;26.80;99.90;;;;;;5112987;27;20047;-80
2023/09/10 09:38:13;;;;;;;16.35;14.75;;;26.80;99.90;;;;;;5110392;27;20047;-80
2023/09/10 09:40:39;;;;;;;17.02;15.32;;;27.00;99.90;;;;;;5109689;28;20421;-79
2023/09/10 09:43:09;;;;;;;17.20;15.57;;;27.20;99.90;;;;;;5085412;27;20143;-79
2023/09/10 09:45:36;;;;;;;15.40;13.73;;;27.40;99.90;;;;;;5154196;27;20122;-78
2023/09/10 09:48:05;;;;;;;17.83;15.77;;;27.70;99.90;;;;;;5115823;27;20045;-80
2023/09/10 09:50:32;;;;;;;16.35;14.75;;;27.90;99.90;;;;;;5097276;27;20476;-79
2023/09/10 09:52:58;;;;;;;15.50;14.02;;;28.10;99.90;;;;;;5096425;27;20123;-80
2023/09/10 09:55:24;;;;;;;15.88;14.23;;;28.30;99.90;;;;;;5095557;27;20080;-79
2023/09/10 09:57:56;;;;;;;17.50;15.80;;;28.30;99.90;;;;;;5095876;27;20039;-80
2023/09/10 10:00:22;;;;;;;16.83;15.05;;;28.40;99.90;;;;;;5135272;27;20088;-79
2023/09/10 10:02:52;;;;;;;16.52;14.93;;;28.20;99.90;;;;;;5153250;27;20082;-80
2023/09/10 10:05:21;;;;;;;16.55;14.95;;;28.30;99.90;;;;;;5095138;27;20106;-79
2023/09/10 10:07:47;;;;;;;15.68;14.27;;;28.20;99.90;;;;;;5095933;27;20483;-78
2023/09/10 10:10:15;;;;;;;16.00;14.32;;;28.60;99.90;;;;;;5107999;27;20126;-79
2023/09/10 10:12:51;;;;;;;15.30;13.77;;;28.70;99.90;;;;;;5112583;27;20524;-80
2023/09/10 10:15:17;;;;;;;16.70;14.65;;;28.60;99.90;;;;;;5113595;27;20129;-80
2023/09/10 10:17:44;;;;;;;14.13;12.93;;;28.60;99.90;;;;;;5103166;27;20042;-79
2023/09/10 10:20:12;;;;;;;16.17;14.60;;;28.80;99.90;;;;;;5125505;27;20066;-79
2023/09/10 10:22:39;;;;;;;15.50;14.00;;;28.80;99.90;;;;;;5099303;27;20086;-79
2023/09/10 10:25:06;;;;;;;16.17;13.95;;;28.80;99.90;;;;;;5115355;27;20034;-80
2023/09/10 10:27:35;;;;;;;13.73;12.43;;;28.80;99.90;;;;;;5115423;27;20589;-79
2023/09/10 10:30:03;;;;;;;14.73;13.40;;;28.70;99.90;;;;;;5115953;27;20039;-79
2023/09/10 10:32:38;;;;;;;16.98;13.82;;;28.70;99.90;;;;;;5133040;27;20050;-80
2023/09/10 10:35:06;;;;;;;15.02;13.55;;;28.80;99.90;;;;;;5132423;27;20374;-79
2023/09/10 10:37:50;;;;;;;11.60;10.35;;;28.80;99.90;;;;;;5131814;27;20122;-79
2023/09/10 10:40:19;;;;;;;13.88;12.30;;;29.10;99.90;;;;;;5113626;27;20038;-79
2023/09/10 10:43:06;;;;;;;13.75;12.32;;;29.10;99.90;;;;;;5115268;27;20117;-79
2023/09/10 10:45:33;;;;;;;14.77;12.10;;;29.00;99.90;;;;;;5115710;27;20133;-79
2023/09/10 10:48:28;;;;;;;11.40;10.27;;;29.10;99.90;;;;;;5113823;27;20366;-79
2023/09/10 10:50:57;;;;;;;13.07;10.52;;;29.40;99.90;;;;;;5104511;27;20086;-80
2023/09/10 10:53:26;;;;;;;11.80;10.32;;;29.40;99.90;;;;;;5094657;28;20676;-79
2023/09/10 10:55:55;;;;;;;11.43;10.10;;;29.70;99.90;;;;;;5077969;28;20047;-80
2023/09/10 10:58:23;;;;;;;11.77;10.60;;;29.80;99.90;;;;;;5094362;27;20043;-79
2023/09/10 11:00:50;;;;;;;11.70;10.50;;;29.90;99.90;;;;;;5095219;28;20043;-79
2023/09/10 11:03:17;;;;;;;9.85;8.90;;;30.10;99.90;;;;;;5094369;28;20042;-78
2023/09/10 11:05:52;;;;;;;11.50;8.88;;;30.00;99.90;;;;;;5094973;28;20043;-78
2023/09/10 11:08:29;;;;;;;11.85;10.68;;;30.00;99.90;;;;;;5094328;28;20132;-79
2023/09/10 11:10:55;;;;;;;11.07;9.70;;;29.80;99.90;;;;;;5124674;27;20073;-80
2023/09/10 11:13:24;;;;;;;12.88;10.52;;;30.20;99.90;;;;;;5132328;27;20080;-80
2023/09/10 11:16:05;;;;;;;12.85;10.52;;;30.20;99.90;;;;;;5135111;27;20390;-80
2023/09/10 11:18:55;;;;;;;10.57;9.50;;;29.90;99.90;;;;;;5135640;27;20070;-79
2023/09/10 11:21:21;;;;;;;12.00;10.80;;;30.00;99.90;;;;;;5148764;27;20493;-80
2023/09/10 11:23:56;;;;;;;15.05;10.20;;;29.90;99.90;;;;;;5152858;27;20034;-80
2023/09/10 11:26:29;;;;;;;10.73;9.80;;;29.80;99.90;;;;;;5135672;27;20071;-80
2023/09/10 11:28:59;;;;;;;12.50;10.25;;;29.70;99.90;;;;;;5152840;27;20073;-79
2023/09/10 11:31:45;;;;;;;10.95;9.85;;;29.90;99.90;;;;;;5134394;27;20066;-80
2023/09/10 11:34:28;;;;;;;10.70;9.57;;;30.20;99.90;;;;;;5115042;27;20046;-79
2023/09/10 11:36:55;;;;;;;11.18;10.05;;;29.90;99.90;;;;;;5119132;27;20046;-80
2023/09/10 11:39:22;;;;;;;10.65;9.55;;;30.30;99.90;;;;;;5135704;27;20389;-78
2023/09/10 11:41:50;;;;;;;15.95;11.23;;;30.60;99.90;;;;;;5129124;27;20035;-80
2023/09/10 11:44:16;;;;;;;11.90;10.70;;;30.50;99.90;;;;;;5100572;28;20120;-79
2023/09/10 11:46:42;;;;;;;11.02;9.77;;;30.30;99.90;;;;;;5112837;27;20031;-79
2023/09/10 11:49:08;;;;;;;11.35;10.32;;;30.50;99.90;;;;;;5152145;27;20041;-79
2023/09/10 11:51:44;;;;;;;11.40;10.30;;;30.60;99.90;;;;;;5135695;27;20038;-79
2023/09/10 11:54:16;;;;;;;12.13;10.90;;;30.10;99.90;;;;;;5114122;28;20043;-79
2023/09/10 11:56:44;;;;;;;11.02;9.77;;;30.00;99.90;;;;;;5094585;28;20467;-80
2023/09/10 11:59:09;;;;;;;11.35;9.93;;;29.80;99.90;;;;;;5114494;27;20088;-79
2023/09/10 12:01:35;;;;;;;11.10;9.82;;;29.90;99.90;;;;;;5134562;27;20074;-79
2023/09/10 12:04:02;;;;;;;10.70;9.52;;;30.00;99.90;;;;;;5128954;27;20395;-75
2023/09/10 12:06:28;;;;;;;13.65;10.00;;;29.80;99.90;;;;;;5100913;27;20042;-80
2023/09/10 12:08:54;;;;;;;11.30;9.98;;;29.90;99.90;;;;;;5114816;27;20115;-80
2023/09/10 12:11:21;;;;;;;11.25;9.82;;;29.70;99.90;;;;;;5097777;27;20039;-80
2023/09/10 12:13:47;;;;;;;12.95;10.02;;;29.90;99.90;;;;;;5081285;27;20043;-79
2023/09/10 12:16:13;;;;;;;10.40;9.35;;;29.90;99.90;;;;;;5129720;27;20043;-81
2023/09/10 12:18:40;;;;;;;10.48;8.80;;;29.70;99.90;;;;;;5101086;27;20035;-79
2023/09/10 12:21:14;;;;;;;9.55;8.60;;;29.70;99.90;;;;;;5134681;27;20470;-81
2023/09/10 12:23:41;;;;;;;9.32;8.35;;;29.80;99.90;;;;;;5100005;27;20501;-80
2023/09/10 12:26:10;;;;;;;9.40;8.32;;;29.90;99.90;;;;;;5115489;27;20023;-79
2023/09/10 12:28:36;;;;;;;14.02;8.82;;;30.00;99.90;;;;;;5113692;27;20091;-81
2023/09/10 12:31:02;;;;;;;13.68;8.32;;;29.90;99.90;;;;;;5100873;27;20303;-81